sensor_id;sensor_type;location;lat;lon;timestamp;temperature;humidity
11221;DHT22;8517;53.546;10.104;2023-06-10T00:00:49;18.40;99.90
11221;DHT22;8517;53.546;10.104;2023-06-10T00:03:17;18.40;99.90
11221;DHT22;8517;53.546;10.104;2023-06-10T00:05:44;18.40;99.90
11221;DHT22;8517;53.546;10.104;2023-06-10T00:08:11;18.30;99.90
11221;DHT22;8517;53.546;10.104;2023-06-10T00:10:38;18.30;99.90
11221;DHT22;8517;53.546;10.104;2023-06-10T00:13:06;18.20;99.90
11221;DHT22;8517;53.546;10.104;2023-06-10T00:15:35;18.20;99.90
11221;DHT22;8517;53.546;10.104;2023-06-10T00:18:02;18.20;99.90
11221;DHT22;8517;53.546;10.104;2023-06-10T00:20:29;18.10;99.90
11221;DHT22;8517;53.546;10.104;2023-06-10T00:23:00;18.10;99.90
11221;DHT22;8517;53.546;10.104;2023-06-10T00:25:27;18.10;99.90
11221;DHT22;8517;53.546;10.104;2023-06-10T00:27:55;18.00;99.90
11221;DHT22;8517;53.546;10.104;2023-06-10T00:30:22;18.00;99.90
11221;DHT22;8517;53.546;10.104;2023-06-10T00:32:50;17.90;99.90
11221;DHT22;8517;53.546;10.104;2023-06-10T00:35:17;17.90;99.90
11221;DHT22;8517;53.546;10.104;2023-06-10T00:37:44;17.90;99.90
11221;DHT22;8517;53.546;10.104;2023-06-10T00:40:12;17.80;99.90
11221;DHT22;8517;53.546;10.104;2023-06-10T00:42:38;17.80;99.90
11221;DHT22;8517;53.546;10.104;2023-06-10T00:45:06;17.80;99.90
11221;DHT22;8517;53.546;10.104;2023-06-10T00:47:33;17.70;99.90
11221;DHT22;8517;53.546;10.104;2023-06-10T00:50:03;17.70;99.90
11221;DHT22;8517;53.546;10.104;2023-06-10T00:52:30;17.70;99.90
11221;DHT22;8517;53.546;10.104;2023-06-10T00:54:58;17.60;99.90
11221;DHT22;8517;53.546;10.104;2023-06-10T00:57:25;17.60;99.90
11221;DHT22;8517;53.546;10.104;2023-06-10T00:59:52;17.50;99.90
11221;DHT22;8517;53.546;10.104;2023-06-10T01:02:19;17.50;99.90
11221;DHT22;8517;53.546;10.104;2023-06-10T01:04:45;17.40;99.90
11221;DHT22;8517;53.546;10.104;2023-06-10T01:07:22;17.40;99.90
11221;DHT22;8517;53.546;10.104;2023-06-10T01:09:54;17.30;99.90
11221;DHT22;8517;53.546;10.104;2023-06-10T01:12:29;17.30;99.90
11221;DHT22;8517;53.546;10.104;2023-06-10T01:14:58;17.20;99.90
11221;DHT22;8517;53.546;10.104;2023-06-10T01:17:26;17.20;99.90
11221;DHT22;8517;53.546;10.104;2023-06-10T01:19:54;17.10;99.90
11221;DHT22;8517;53.546;10.104;2023-06-10T01:22:24;17.10;99.90
11221;DHT22;8517;53.546;10.104;2023-06-10T01:24:51;17.10;99.90
11221;DHT22;8517;53.546;10.104;2023-06-10T01:27:21;17.10;99.90
11221;DHT22;8517;53.546;10.104;2023-06-10T01:29:54;17.00;99.90
11221;DHT22;8517;53.546;10.104;2023-06-10T01:32:26;17.00;99.90
11221;DHT22;8517;53.546;10.104;2023-06-10T01:34:54;17.00;99.90
11221;DHT22;8517;53.546;10.104;2023-06-10T01:37:24;17.00;99.90
11221;DHT22;8517;53.546;10.104;2023-06-10T01:39:55;16.90;99.90
11221;DHT22;8517;53.546;10.104;2023-06-10T01:42:23;16.90;99.90
11221;DHT22;8517;53.546;10.104;2023-06-10T01:44:51;16.90;99.90
11221;DHT22;8517;53.546;10.104;2023-06-10T01:47:18;16.90;99.90
11221;DHT22;8517;53.546;10.104;2023-06-10T01:49:45;16.90;99.90
11221;DHT22;8517;53.546;10.104;2023-06-10T01:52:12;16.90;99.90
11221;DHT22;8517;53.546;10.104;2023-06-10T01:54:40;16.80;99.90
11221;DHT22;8517;53.546;10.104;2023-06-10T01:57:07;16.80;99.90
11221;DHT22;8517;53.546;10.104;2023-06-10T01:59:34;16.80;99.90
11221;DHT22;8517;53.546;10.104;2023-06-10T02:02:02;16.80;99.90
11221;DHT22;8517;53.546;10.104;2023-06-10T02:04:29;16.80;99.90
11221;DHT22;8517;53.546;10.104;2023-06-10T02:06:56;16.70;99.90
11221;DHT22;8517;53.546;10.104;2023-06-10T02:09:23;16.70;99.90
11221;DHT22;8517;53.546;10.104;2023-06-10T02:11:51;16.70;99.90
11221;DHT22;8517;53.546;10.104;2023-06-10T02:14:18;16.60;99.90
11221;DHT22;8517;53.546;10.104;2023-06-10T02:16:45;16.60;99.90
11221;DHT22;8517;53.546;10.104;2023-06-10T02:19:12;16.60;99.90
11221;DHT22;8517;53.546;10.104;2023-06-10T02:21:39;16.60;99.90
11221;DHT22;8517;53.546;10.104;2023-06-10T02:24:06;16.60;99.90
11221;DHT22;8517;53.546;10.104;2023-06-10T02:26:33;16.50;99.90
11221;DHT22;8517;53.546;10.104;2023-06-10T02:29:01;16.60;99.90
11221;DHT22;8517;53.546;10.104;2023-06-10T02:31:29;16.50;99.90
11221;DHT22;8517;53.546;10.104;2023-06-10T02:33:55;16.60;99.90
11221;DHT22;8517;53.546;10.104;2023-06-10T02:36:22;16.60;99.90
11221;DHT22;8517;53.546;10.104;2023-06-10T02:38:49;16.50;99.90
11221;DHT22;8517;53.546;10.104;2023-06-10T02:41:16;16.50;99.90
11221;DHT22;8517;53.546;10.104;2023-06-10T02:43:43;16.50;99.90
11221;DHT22;8517;53.546;10.104;2023-06-10T02:46:11;16.50;99.90
11221;DHT22;8517;53.546;10.104;2023-06-10T02:48:42;16.40;99.90
11221;DHT22;8517;53.546;10.104;2023-06-10T02:51:09;16.40;99.90
11221;DHT22;8517;53.546;10.104;2023-06-10T02:53:36;16.40;99.90
11221;DHT22;8517;53.546;10.104;2023-06-10T02:56:04;16.40;99.90
11221;DHT22;8517;53.546;10.104;2023-06-10T02:58:31;16.40;99.90
11221;DHT22;8517;53.546;10.104;2023-06-10T03:00:58;16.40;99.90
11221;DHT22;8517;53.546;10.104;2023-06-10T03:03:26;16.40;99.90
11221;DHT22;8517;53.546;10.104;2023-06-10T03:05:53;16.40;99.90
11221;DHT22;8517;53.546;10.104;2023-06-10T03:08:22;16.30;99.90
11221;DHT22;8517;53.546;10.104;2023-06-10T03:10:49;16.40;99.90
11221;DHT22;8517;53.546;10.104;2023-06-10T03:13:15;16.40;99.90
11221;DHT22;8517;53.546;10.104;2023-06-10T03:15:42;16.30;99.90
11221;DHT22;8517;53.546;10.104;2023-06-10T03:18:10;16.30;99.90
11221;DHT22;8517;53.546;10.104;2023-06-10T03:20:38;16.30;99.90
11221;DHT22;8517;53.546;10.104;2023-06-10T03:23:05;16.30;99.90
11221;DHT22;8517;53.546;10.104;2023-06-10T03:25:32;16.30;99.90
11221;DHT22;8517;53.546;10.104;2023-06-10T03:27:59;16.30;99.90
11221;DHT22;8517;53.546;10.104;2023-06-10T03:30:27;16.40;99.90
11221;DHT22;8517;53.546;10.104;2023-06-10T03:32:53;16.30;99.90
11221;DHT22;8517;53.546;10.104;2023-06-10T03:35:20;16.30;99.90
11221;DHT22;8517;53.546;10.104;2023-06-10T03:37:49;16.30;99.90
11221;DHT22;8517;53.546;10.104;2023-06-10T03:40:16;16.40;99.90
11221;DHT22;8517;53.546;10.104;2023-06-10T03:42:42;16.40;99.90
11221;DHT22;8517;53.546;10.104;2023-06-10T03:45:10;16.40;99.90
11221;DHT22;8517;53.546;10.104;2023-06-10T03:47:38;16.40;99.90
11221;DHT22;8517;53.546;10.104;2023-06-10T03:50:06;16.40;99.90
11221;DHT22;8517;53.546;10.104;2023-06-10T03:52:34;16.50;99.90
11221;DHT22;8517;53.546;10.104;2023-06-10T03:55:03;16.50;99.90
11221;DHT22;8517;53.546;10.104;2023-06-10T03:57:30;16.50;99.90
11221;DHT22;8517;53.546;10.104;2023-06-10T03:59:58;16.50;99.90
11221;DHT22;8517;53.546;10.104;2023-06-10T04:02:24;16.60;99.90
11221;DHT22;8517;53.546;10.104;2023-06-10T04:04:51;16.60;99.90
11221;DHT22;8517;53.546;10.104;2023-06-10T04:07:18;16.60;99.90
11221;DHT22;8517;53.546;10.104;2023-06-10T04:09:45;16.70;99.90
11221;DHT22;8517;53.546;10.104;2023-06-10T04:12:14;16.70;99.90
11221;DHT22;8517;53.546;10.104;2023-06-10T04:14:42;16.80;99.90
11221;DHT22;8517;53.546;10.104;2023-06-10T04:17:08;16.80;99.90
11221;DHT22;8517;53.546;10.104;2023-06-10T04:19:35;16.90;99.90
11221;DHT22;8517;53.546;10.104;2023-06-10T04:22:02;16.80;99.90
11221;DHT22;8517;53.546;10.104;2023-06-10T04:24:30;16.90;99.90
11221;DHT22;8517;53.546;10.104;2023-06-10T04:26:57;16.90;99.90
11221;DHT22;8517;53.546;10.104;2023-06-10T04:29:25;17.00;99.90
11221;DHT22;8517;53.546;10.104;2023-06-10T04:31:52;17.10;99.90
11221;DHT22;8517;53.546;10.104;2023-06-10T04:34:19;17.10;99.90
11221;DHT22;8517;53.546;10.104;2023-06-10T04:36:46;17.20;99.90
11221;DHT22;8517;53.546;10.104;2023-06-10T04:39:13;17.30;99.90
11221;DHT22;8517;53.546;10.104;2023-06-10T04:41:42;17.40;99.90
11221;DHT22;8517;53.546;10.104;2023-06-10T04:44:08;17.40;99.90
11221;DHT22;8517;53.546;10.104;2023-06-10T04:46:37;17.50;99.90
11221;DHT22;8517;53.546;10.104;2023-06-10T04:49:04;17.50;99.90
11221;DHT22;8517;53.546;10.104;2023-06-10T04:51:31;17.60;99.90
11221;DHT22;8517;53.546;10.104;2023-06-10T04:53:58;17.70;99.90
11221;DHT22;8517;53.546;10.104;2023-06-10T04:56:28;17.70;99.90
11221;DHT22;8517;53.546;10.104;2023-06-10T04:58:55;17.70;99.90
11221;DHT22;8517;53.546;10.104;2023-06-10T05:01:22;17.70;99.90
11221;DHT22;8517;53.546;10.104;2023-06-10T05:03:50;17.80;99.90
11221;DHT22;8517;53.546;10.104;2023-06-10T05:06:17;17.80;99.90
11221;DHT22;8517;53.546;10.104;2023-06-10T05:08:44;17.90;99.90
11221;DHT22;8517;53.546;10.104;2023-06-10T05:11:10;17.90;99.90
11221;DHT22;8517;53.546;10.104;2023-06-10T05:13:37;18.00;99.90
11221;DHT22;8517;53.546;10.104;2023-06-10T05:16:05;18.10;99.90
11221;DHT22;8517;53.546;10.104;2023-06-10T05:18:33;18.20;99.90
11221;DHT22;8517;53.546;10.104;2023-06-10T05:21:02;18.20;99.90
11221;DHT22;8517;53.546;10.104;2023-06-10T05:23:29;18.30;99.90
11221;DHT22;8517;53.546;10.104;2023-06-10T05:25:56;18.40;99.90
11221;DHT22;8517;53.546;10.104;2023-06-10T05:28:23;18.60;99.90
11221;DHT22;8517;53.546;10.104;2023-06-10T05:30:50;18.70;99.90
11221;DHT22;8517;53.546;10.104;2023-06-10T05:33:17;18.90;99.90
11221;DHT22;8517;53.546;10.104;2023-06-10T05:35:44;18.90;99.90
11221;DHT22;8517;53.546;10.104;2023-06-10T05:38:12;19.00;99.90
11221;DHT22;8517;53.546;10.104;2023-06-10T05:40:38;19.10;99.90
11221;DHT22;8517;53.546;10.104;2023-06-10T05:43:05;19.20;99.90
11221;DHT22;8517;53.546;10.104;2023-06-10T05:45:32;19.30;99.90
11221;DHT22;8517;53.546;10.104;2023-06-10T05:47:59;19.30;99.90
11221;DHT22;8517;53.546;10.104;2023-06-10T05:50:26;19.30;99.90
11221;DHT22;8517;53.546;10.104;2023-06-10T05:52:52;19.30;99.90
11221;DHT22;8517;53.546;10.104;2023-06-10T05:55:21;19.40;99.90
11221;DHT22;8517;53.546;10.104;2023-06-10T05:57:58;19.40;99.90
11221;DHT22;8517;53.546;10.104;2023-06-10T06:00:25;19.50;99.90
11221;DHT22;8517;53.546;10.104;2023-06-10T06:02:51;19.50;99.90
11221;DHT22;8517;53.546;10.104;2023-06-10T06:05:19;19.60;99.90
11221;DHT22;8517;53.546;10.104;2023-06-10T06:07:46;19.60;99.90
11221;DHT22;8517;53.546;10.104;2023-06-10T06:10:13;19.70;99.90
11221;DHT22;8517;53.546;10.104;2023-06-10T06:12:41;19.90;99.90
11221;DHT22;8517;53.546;10.104;2023-06-10T06:15:09;20.10;99.90
11221;DHT22;8517;53.546;10.104;2023-06-10T06:17:36;20.40;99.90
11221;DHT22;8517;53.546;10.104;2023-06-10T06:20:04;20.60;99.90
11221;DHT22;8517;53.546;10.104;2023-06-10T06:22:31;21.00;99.90
11221;DHT22;8517;53.546;10.104;2023-06-10T06:24:58;21.30;99.90
11221;DHT22;8517;53.546;10.104;2023-06-10T06:27:24;21.50;99.90
11221;DHT22;8517;53.546;10.104;2023-06-10T06:29:52;21.90;99.90
11221;DHT22;8517;53.546;10.104;2023-06-10T06:32:19;22.20;99.90
11221;DHT22;8517;53.546;10.104;2023-06-10T06:34:48;22.50;99.90
11221;DHT22;8517;53.546;10.104;2023-06-10T06:37:20;22.80;99.90
11221;DHT22;8517;53.546;10.104;2023-06-10T06:39:46;23.20;99.90
11221;DHT22;8517;53.546;10.104;2023-06-10T06:42:13;23.50;99.90
11221;DHT22;8517;53.546;10.104;2023-06-10T06:44:40;23.70;99.90
11221;DHT22;8517;53.546;10.104;2023-06-10T06:47:08;23.90;99.90
11221;DHT22;8517;53.546;10.104;2023-06-10T06:49:35;24.10;99.90
11221;DHT22;8517;53.546;10.104;2023-06-10T06:52:03;24.30;99.90
11221;DHT22;8517;53.546;10.104;2023-06-10T06:54:30;24.50;99.90
11221;DHT22;8517;53.546;10.104;2023-06-10T06:56:57;24.70;99.90
11221;DHT22;8517;53.546;10.104;2023-06-10T06:59:24;24.80;99.90
11221;DHT22;8517;53.546;10.104;2023-06-10T07:01:51;25.00;99.90
11221;DHT22;8517;53.546;10.104;2023-06-10T07:04:20;25.10;99.90
11221;DHT22;8517;53.546;10.104;2023-06-10T07:06:48;25.20;99.90
11221;DHT22;8517;53.546;10.104;2023-06-10T07:09:14;25.30;99.90
11221;DHT22;8517;53.546;10.104;2023-06-10T07:11:41;25.40;99.90
11221;DHT22;8517;53.546;10.104;2023-06-10T07:14:08;25.60;99.90
11221;DHT22;8517;53.546;10.104;2023-06-10T07:16:35;25.80;99.90
11221;DHT22;8517;53.546;10.104;2023-06-10T07:19:02;26.00;99.90
11221;DHT22;8517;53.546;10.104;2023-06-10T07:21:31;26.30;99.90
11221;DHT22;8517;53.546;10.104;2023-06-10T07:23:59;26.40;99.90
11221;DHT22;8517;53.546;10.104;2023-06-10T07:26:26;26.60;99.90
11221;DHT22;8517;53.546;10.104;2023-06-10T07:28:52;26.80;99.90
11221;DHT22;8517;53.546;10.104;2023-06-10T07:31:20;26.90;99.90
11221;DHT22;8517;53.546;10.104;2023-06-10T07:33:47;27.10;99.90
11221;DHT22;8517;53.546;10.104;2023-06-10T07:36:14;27.20;99.90
11221;DHT22;8517;53.546;10.104;2023-06-10T07:38:42;27.30;99.90
11221;DHT22;8517;53.546;10.104;2023-06-10T07:41:09;27.40;99.90
11221;DHT22;8517;53.546;10.104;2023-06-10T07:43:36;27.50;99.90
11221;DHT22;8517;53.546;10.104;2023-06-10T07:46:03;27.50;99.90
11221;DHT22;8517;53.546;10.104;2023-06-10T07:48:31;27.50;99.90
11221;DHT22;8517;53.546;10.104;2023-06-10T07:50:58;27.50;99.90
11221;DHT22;8517;53.546;10.104;2023-06-10T07:53:25;27.50;99.90
11221;DHT22;8517;53.546;10.104;2023-06-10T07:55:53;27.50;99.90
11221;DHT22;8517;53.546;10.104;2023-06-10T07:58:20;27.40;99.90
11221;DHT22;8517;53.546;10.104;2023-06-10T08:00:47;27.40;99.90
11221;DHT22;8517;53.546;10.104;2023-06-10T08:03:14;27.40;99.90
11221;DHT22;8517;53.546;10.104;2023-06-10T08:05:41;27.30;99.90
11221;DHT22;8517;53.546;10.104;2023-06-10T08:08:08;27.20;99.90
11221;DHT22;8517;53.546;10.104;2023-06-10T08:10:35;27.10;99.90
11221;DHT22;8517;53.546;10.104;2023-06-10T08:13:03;27.00;99.90
11221;DHT22;8517;53.546;10.104;2023-06-10T08:15:30;27.00;99.90
11221;DHT22;8517;53.546;10.104;2023-06-10T08:17:57;26.90;99.90
11221;DHT22;8517;53.546;10.104;2023-06-10T08:20:24;26.80;99.90
11221;DHT22;8517;53.546;10.104;2023-06-10T08:22:51;26.70;99.90
11221;DHT22;8517;53.546;10.104;2023-06-10T08:25:18;26.70;99.90
11221;DHT22;8517;53.546;10.104;2023-06-10T08:27:47;26.60;99.90
11221;DHT22;8517;53.546;10.104;2023-06-10T08:30:15;26.50;99.90
11221;DHT22;8517;53.546;10.104;2023-06-10T08:32:42;26.50;99.90
11221;DHT22;8517;53.546;10.104;2023-06-10T08:35:09;26.40;99.90
11221;DHT22;8517;53.546;10.104;2023-06-10T08:37:36;26.40;99.90
11221;DHT22;8517;53.546;10.104;2023-06-10T08:40:04;26.30;99.90
11221;DHT22;8517;53.546;10.104;2023-06-10T08:42:33;26.30;99.90
11221;DHT22;8517;53.546;10.104;2023-06-10T08:45:03;26.30;99.90
11221;DHT22;8517;53.546;10.104;2023-06-10T08:47:33;26.20;99.90
11221;DHT22;8517;53.546;10.104;2023-06-10T08:50:03;26.20;99.90
11221;DHT22;8517;53.546;10.104;2023-06-10T08:52:35;26.20;99.90
11221;DHT22;8517;53.546;10.104;2023-06-10T08:55:05;26.20;99.90
11221;DHT22;8517;53.546;10.104;2023-06-10T08:57:35;26.20;99.90
11221;DHT22;8517;53.546;10.104;2023-06-10T09:00:03;26.20;99.90
11221;DHT22;8517;53.546;10.104;2023-06-10T09:02:33;26.30;99.90
11221;DHT22;8517;53.546;10.104;2023-06-10T09:05:02;26.40;99.90
11221;DHT22;8517;53.546;10.104;2023-06-10T09:07:30;26.40;99.90
11221;DHT22;8517;53.546;10.104;2023-06-10T09:10:01;26.60;99.90
11221;DHT22;8517;53.546;10.104;2023-06-10T09:12:32;26.70;99.90
11221;DHT22;8517;53.546;10.104;2023-06-10T09:14:59;26.80;99.90
11221;DHT22;8517;53.546;10.104;2023-06-10T09:17:27;26.80;99.90
11221;DHT22;8517;53.546;10.104;2023-06-10T09:19:55;26.90;99.90
11221;DHT22;8517;53.546;10.104;2023-06-10T09:22:23;26.90;99.90
11221;DHT22;8517;53.546;10.104;2023-06-10T09:24:52;26.90;99.90
11221;DHT22;8517;53.546;10.104;2023-06-10T09:27:30;27.00;99.90
11221;DHT22;8517;53.546;10.104;2023-06-10T09:29:57;27.00;99.90
11221;DHT22;8517;53.546;10.104;2023-06-10T09:32:25;26.90;99.90
11221;DHT22;8517;53.546;10.104;2023-06-10T09:34:52;26.90;99.90
11221;DHT22;8517;53.546;10.104;2023-06-10T09:37:24;26.80;99.90
11221;DHT22;8517;53.546;10.104;2023-06-10T09:40:04;26.80;99.90
11221;DHT22;8517;53.546;10.104;2023-06-10T09:42:36;26.70;99.90
11221;DHT22;8517;53.546;10.104;2023-06-10T09:45:04;26.70;99.90
11221;DHT22;8517;53.546;10.104;2023-06-10T09:47:31;26.70;99.90
11221;DHT22;8517;53.546;10.104;2023-06-10T09:49:58;26.60;99.90
11221;DHT22;8517;53.546;10.104;2023-06-10T09:52:28;26.60;99.90
11221;DHT22;8517;53.546;10.104;2023-06-10T09:54:59;26.60;99.90
11221;DHT22;8517;53.546;10.104;2023-06-10T09:57:30;26.70;99.90
11221;DHT22;8517;53.546;10.104;2023-06-10T09:59:58;26.70;99.90
11221;DHT22;8517;53.546;10.104;2023-06-10T10:02:25;26.90;99.90
11221;DHT22;8517;53.546;10.104;2023-06-10T10:04:52;26.90;99.90
11221;DHT22;8517;53.546;10.104;2023-06-10T10:07:19;27.00;99.90
11221;DHT22;8517;53.546;10.104;2023-06-10T10:09:47;27.20;99.90
11221;DHT22;8517;53.546;10.104;2023-06-10T10:12:16;27.30;99.90
11221;DHT22;8517;53.546;10.104;2023-06-10T10:14:46;27.50;99.90
11221;DHT22;8517;53.546;10.104;2023-06-10T10:17:15;27.60;99.90
11221;DHT22;8517;53.546;10.104;2023-06-10T10:19:46;27.80;99.90
11221;DHT22;8517;53.546;10.104;2023-06-10T10:22:18;28.00;99.90
11221;DHT22;8517;53.546;10.104;2023-06-10T10:24:50;28.30;99.90
11221;DHT22;8517;53.546;10.104;2023-06-10T10:27:20;28.50;99.90
11221;DHT22;8517;53.546;10.104;2023-06-10T10:29:52;28.70;99.90
11221;DHT22;8517;53.546;10.104;2023-06-10T10:32:24;28.90;99.90
11221;DHT22;8517;53.546;10.104;2023-06-10T10:34:58;29.10;99.90
11221;DHT22;8517;53.546;10.104;2023-06-10T10:37:30;29.30;99.90
11221;DHT22;8517;53.546;10.104;2023-06-10T10:40:00;29.50;99.90
11221;DHT22;8517;53.546;10.104;2023-06-10T10:42:27;29.70;99.90
11221;DHT22;8517;53.546;10.104;2023-06-10T10:46:23;30.00;99.90
11221;DHT22;8517;53.546;10.104;2023-06-10T10:48:19;30.10;99.90
11221;DHT22;8517;53.546;10.104;2023-06-10T10:50:56;30.30;99.90
11221;DHT22;8517;53.546;10.104;2023-06-10T10:53:23;30.50;99.90
11221;DHT22;8517;53.546;10.104;2023-06-10T10:55:59;30.60;99.90
11221;DHT22;8517;53.546;10.104;2023-06-10T10:58:26;30.70;99.90
11221;DHT22;8517;53.546;10.104;2023-06-10T11:00:53;30.90;99.90
11221;DHT22;8517;53.546;10.104;2023-06-10T11:03:20;30.90;99.90
11221;DHT22;8517;53.546;10.104;2023-06-10T11:06:06;30.90;99.90
11221;DHT22;8517;53.546;10.104;2023-06-10T11:08:49;30.80;99.90
11221;DHT22;8517;53.546;10.104;2023-06-10T11:11:22;30.60;99.90
11221;DHT22;8517;53.546;10.104;2023-06-10T11:14:05;30.40;99.90
11221;DHT22;8517;53.546;10.104;2023-06-10T11:16:39;30.20;99.90
11221;DHT22;8517;53.546;10.104;2023-06-10T11:19:06;30.10;99.90
11221;DHT22;8517;53.546;10.104;2023-06-10T11:21:45;29.90;99.90
11221;DHT22;8517;53.546;10.104;2023-06-10T11:24:23;29.70;99.90
11221;DHT22;8517;53.546;10.104;2023-06-10T11:26:52;29.50;99.90
11221;DHT22;8517;53.546;10.104;2023-06-10T11:29:20;29.40;99.90
11221;DHT22;8517;53.546;10.104;2023-06-10T11:31:50;29.30;99.90
11221;DHT22;8517;53.546;10.104;2023-06-10T11:34:24;29.20;99.90
11221;DHT22;8517;53.546;10.104;2023-06-10T11:36:52;29.10;99.90
11221;DHT22;8517;53.546;10.104;2023-06-10T11:39:20;29.00;99.90
11221;DHT22;8517;53.546;10.104;2023-06-10T11:44:48;28.90;99.90
11221;DHT22;8517;53.546;10.104;2023-06-10T11:47:15;28.80;99.90
11221;DHT22;8517;53.546;10.104;2023-06-10T11:49:41;28.80;99.90
11221;DHT22;8517;53.546;10.104;2023-06-10T11:52:08;28.70;99.90
11221;DHT22;8517;53.546;10.104;2023-06-10T11:54:36;28.70;99.90
11221;DHT22;8517;53.546;10.104;2023-06-10T11:57:05;28.70;99.90
11221;DHT22;8517;53.546;10.104;2023-06-10T11:59:34;28.70;99.90
11221;DHT22;8517;53.546;10.104;2023-06-10T12:02:00;28.70;99.90
11221;DHT22;8517;53.546;10.104;2023-06-10T12:04:28;28.80;99.90
11221;DHT22;8517;53.546;10.104;2023-06-10T12:06:55;28.80;99.90
11221;DHT22;8517;53.546;10.104;2023-06-10T12:09:24;28.80;99.90
11221;DHT22;8517;53.546;10.104;2023-06-10T12:11:52;28.80;99.90
11221;DHT22;8517;53.546;10.104;2023-06-10T12:14:52;28.80;99.90
11221;DHT22;8517;53.546;10.104;2023-06-10T12:17:23;28.80;99.90
11221;DHT22;8517;53.546;10.104;2023-06-10T12:19:50;28.90;99.90
11221;DHT22;8517;53.546;10.104;2023-06-10T12:22:17;28.80;99.90
11221;DHT22;8517;53.546;10.104;2023-06-10T12:24:56;28.90;99.90
11221;DHT22;8517;53.546;10.104;2023-06-10T12:27:24;28.90;99.90
11221;DHT22;8517;53.546;10.104;2023-06-10T12:29:55;28.80;99.90
11221;DHT22;8517;53.546;10.104;2023-06-10T12:32:35;28.80;99.90
11221;DHT22;8517;53.546;10.104;2023-06-10T12:35:03;28.80;99.90
11221;DHT22;8517;53.546;10.104;2023-06-10T12:37:30;28.80;99.90
11221;DHT22;8517;53.546;10.104;2023-06-10T12:40:00;28.80;99.90
11221;DHT22;8517;53.546;10.104;2023-06-10T12:42:28;28.90;99.90
11221;DHT22;8517;53.546;10.104;2023-06-10T12:44:58;28.80;99.90
11221;DHT22;8517;53.546;10.104;2023-06-10T12:47:30;28.80;99.90
11221;DHT22;8517;53.546;10.104;2023-06-10T12:49:58;28.90;99.90
11221;DHT22;8517;53.546;10.104;2023-06-10T12:52:25;28.90;99.90
11221;DHT22;8517;53.546;10.104;2023-06-10T12:54:52;28.90;99.90
11221;DHT22;8517;53.546;10.104;2023-06-10T12:57:19;29.00;99.90
11221;DHT22;8517;53.546;10.104;2023-06-10T12:59:46;29.00;99.90
11221;DHT22;8517;53.546;10.104;2023-06-10T13:02:19;29.00;99.90
11221;DHT22;8517;53.546;10.104;2023-06-10T13:04:46;29.10;99.90
11221;DHT22;8517;53.546;10.104;2023-06-10T13:07:13;29.10;99.90
11221;DHT22;8517;53.546;10.104;2023-06-10T13:09:46;29.10;99.90
11221;DHT22;8517;53.546;10.104;2023-06-10T13:12:17;29.10;99.90
11221;DHT22;8517;53.546;10.104;2023-06-10T13:14:44;29.20;99.90
11221;DHT22;8517;53.546;10.104;2023-06-10T13:17:11;29.30;99.90
11221;DHT22;8517;53.546;10.104;2023-06-10T13:19:40;29.30;99.90
11221;DHT22;8517;53.546;10.104;2023-06-10T13:22:06;29.30;99.90
11221;DHT22;8517;53.546;10.104;2023-06-10T13:24:33;29.40;99.90
11221;DHT22;8517;53.546;10.104;2023-06-10T13:27:00;29.50;99.90
11221;DHT22;8517;53.546;10.104;2023-06-10T13:29:27;29.50;99.90
11221;DHT22;8517;53.546;10.104;2023-06-10T13:31:54;29.60;99.90
11221;DHT22;8517;53.546;10.104;2023-06-10T13:34:21;29.60;99.90
11221;DHT22;8517;53.546;10.104;2023-06-10T13:36:49;29.60;99.90
11221;DHT22;8517;53.546;10.104;2023-06-10T13:39:16;29.60;99.90
11221;DHT22;8517;53.546;10.104;2023-06-10T13:41:43;29.70;99.90
11221;DHT22;8517;53.546;10.104;2023-06-10T13:44:09;29.60;99.90
11221;DHT22;8517;53.546;10.104;2023-06-10T13:46:36;29.70;99.90
11221;DHT22;8517;53.546;10.104;2023-06-10T13:49:03;29.70;99.90
11221;DHT22;8517;53.546;10.104;2023-06-10T13:51:30;29.60;99.90
11221;DHT22;8517;53.546;10.104;2023-06-10T13:53:58;29.60;99.90
11221;DHT22;8517;53.546;10.104;2023-06-10T13:56:25;29.60;99.90
11221;DHT22;8517;53.546;10.104;2023-06-10T13:58:51;29.50;99.90
11221;DHT22;8517;53.546;10.104;2023-06-10T14:01:18;29.50;99.90
11221;DHT22;8517;53.546;10.104;2023-06-10T14:03:47;29.50;99.90
11221;DHT22;8517;53.546;10.104;2023-06-10T14:06:21;29.50;99.90
11221;DHT22;8517;53.546;10.104;2023-06-10T14:08:48;29.50;99.90
11221;DHT22;8517;53.546;10.104;2023-06-10T14:11:16;29.50;99.90
11221;DHT22;8517;53.546;10.104;2023-06-10T14:13:43;29.40;99.90
11221;DHT22;8517;53.546;10.104;2023-06-10T14:16:09;29.50;99.90
11221;DHT22;8517;53.546;10.104;2023-06-10T14:18:36;29.50;99.90
11221;DHT22;8517;53.546;10.104;2023-06-10T14:21:03;29.40;99.90
11221;DHT22;8517;53.546;10.104;2023-06-10T14:23:30;29.50;99.90
11221;DHT22;8517;53.546;10.104;2023-06-10T14:25:57;29.40;99.90
11221;DHT22;8517;53.546;10.104;2023-06-10T14:28:25;29.50;99.90
11221;DHT22;8517;53.546;10.104;2023-06-10T14:30:53;29.40;99.90
11221;DHT22;8517;53.546;10.104;2023-06-10T14:33:20;29.40;99.90
11221;DHT22;8517;53.546;10.104;2023-06-10T14:35:46;29.30;99.90
11221;DHT22;8517;53.546;10.104;2023-06-10T14:38:25;29.30;99.90
11221;DHT22;8517;53.546;10.104;2023-06-10T14:40:56;29.30;99.90
11221;DHT22;8517;53.546;10.104;2023-06-10T14:43:25;29.20;99.90
11221;DHT22;8517;53.546;10.104;2023-06-10T14:45:52;29.10;99.90
11221;DHT22;8517;53.546;10.104;2023-06-10T14:48:20;29.10;99.90
11221;DHT22;8517;53.546;10.104;2023-06-10T14:50:47;29.00;99.90
11221;DHT22;8517;53.546;10.104;2023-06-10T14:53:16;29.00;99.90
11221;DHT22;8517;53.546;10.104;2023-06-10T14:55:43;29.00;99.90
11221;DHT22;8517;53.546;10.104;2023-06-10T14:58:10;29.00;99.90
11221;DHT22;8517;53.546;10.104;2023-06-10T15:00:38;28.90;99.90
11221;DHT22;8517;53.546;10.104;2023-06-10T15:03:05;29.00;99.90
11221;DHT22;8517;53.546;10.104;2023-06-10T15:05:32;29.00;99.90
11221;DHT22;8517;53.546;10.104;2023-06-10T15:08:00;29.00;99.90
11221;DHT22;8517;53.546;10.104;2023-06-10T15:10:26;29.00;99.90
11221;DHT22;8517;53.546;10.104;2023-06-10T15:12:53;29.00;99.90
11221;DHT22;8517;53.546;10.104;2023-06-10T15:15:22;28.90;99.90
11221;DHT22;8517;53.546;10.104;2023-06-10T15:17:51;28.90;99.90
11221;DHT22;8517;53.546;10.104;2023-06-10T15:20:18;29.00;99.90
11221;DHT22;8517;53.546;10.104;2023-06-10T15:22:45;28.90;99.90
11221;DHT22;8517;53.546;10.104;2023-06-10T15:25:12;28.90;99.90
11221;DHT22;8517;53.546;10.104;2023-06-10T15:27:39;28.90;99.90
11221;DHT22;8517;53.546;10.104;2023-06-10T15:30:06;28.90;99.90
11221;DHT22;8517;53.546;10.104;2023-06-10T15:32:33;28.90;99.90
11221;DHT22;8517;53.546;10.104;2023-06-10T15:35:01;28.80;99.90
11221;DHT22;8517;53.546;10.104;2023-06-10T15:37:28;28.80;99.90
11221;DHT22;8517;53.546;10.104;2023-06-10T15:39:55;28.70;99.90